sensor_id;sensor_type;location;lat;lon;timestamp;pressure;altitude;pressure_sealevel;temperature
19282;BMP180;9774;52.034;5.342;2023-09-18T00:02:26;100480.00;;;24.30
19282;BMP180;9774;52.034;5.342;2023-09-18T00:04:57;100481.00;;;24.40
19282;BMP180;9774;52.034;5.342;2023-09-18T00:07:24;100476.00;;;24.40
19282;BMP180;9774;52.034;5.342;2023-09-18T00:09:51;100460.00;;;24.40
19282;BMP180;9774;52.034;5.342;2023-09-18T00:12:18;100453.00;;;24.40
19282;BMP180;9774;52.034;5.342;2023-09-18T00:14:49;100435.00;;;24.40
19282;BMP180;9774;52.034;5.342;2023-09-18T00:17:17;100430.00;;;24.40
19282;BMP180;9774;52.034;5.342;2023-09-18T00:19:44;100432.00;;;24.40
19282;BMP180;9774;52.034;5.342;2023-09-18T00:22:12;100428.00;;;24.50
19282;BMP180;9774;52.034;5.342;2023-09-18T00:24:39;100418.00;;;24.50
19282;BMP180;9774;52.034;5.342;2023-09-18T00:27:06;100423.00;;;24.50
19282;BMP180;9774;52.034;5.342;2023-09-18T00:29:33;100418.00;;;24.50
19282;BMP180;9774;52.034;5.342;2023-09-18T00:32:01;100403.00;;;24.50
19282;BMP180;9774;52.034;5.342;2023-09-18T00:34:29;100401.00;;;24.50
19282;BMP180;9774;52.034;5.342;2023-09-18T00:36:57;100401.00;;;24.50
19282;BMP180;9774;52.034;5.342;2023-09-18T00:39:25;100406.00;;;24.50
19282;BMP180;9774;52.034;5.342;2023-09-18T00:41:52;100403.00;;;24.60
19282;BMP180;9774;52.034;5.342;2023-09-18T00:44:20;100392.00;;;24.60
19282;BMP180;9774;52.034;5.342;2023-09-18T00:46:48;100397.00;;;24.60
19282;BMP180;9774;52.034;5.342;2023-09-18T00:49:18;100383.00;;;24.60
19282;BMP180;9774;52.034;5.342;2023-09-18T00:51:46;100368.00;;;24.60
19282;BMP180;9774;52.034;5.342;2023-09-18T00:54:16;100363.00;;;24.60
19282;BMP180;9774;52.034;5.342;2023-09-18T00:56:45;100355.00;;;24.60
19282;BMP180;9774;52.034;5.342;2023-09-18T00:59:14;100353.00;;;24.60
19282;BMP180;9774;52.034;5.342;2023-09-18T01:01:42;100352.00;;;24.60
19282;BMP180;9774;52.034;5.342;2023-09-18T01:04:09;100339.00;;;24.60
19282;BMP180;9774;52.034;5.342;2023-09-18T01:06:40;100337.00;;;24.60
19282;BMP180;9774;52.034;5.342;2023-09-18T01:09:08;100321.00;;;24.60
19282;BMP180;9774;52.034;5.342;2023-09-18T01:11:47;100310.00;;;24.60
19282;BMP180;9774;52.034;5.342;2023-09-18T01:14:25;100307.00;;;24.60
19282;BMP180;9774;52.034;5.342;2023-09-18T01:16:57;100307.00;;;24.60
19282;BMP180;9774;52.034;5.342;2023-09-18T01:19:37;100312.00;;;24.50
19282;BMP180;9774;52.034;5.342;2023-09-18T01:22:08;100305.00;;;24.60
19282;BMP180;9774;52.034;5.342;2023-09-18T01:24:37;100290.00;;;24.60
19282;BMP180;9774;52.034;5.342;2023-09-18T01:27:09;100282.00;;;24.60
19282;BMP180;9774;52.034;5.342;2023-09-18T01:29:36;100277.00;;;24.70
19282;BMP180;9774;52.034;5.342;2023-09-18T01:32:04;100269.00;;;24.70
19282;BMP180;9774;52.034;5.342;2023-09-18T01:34:35;100270.00;;;24.70
19282;BMP180;9774;52.034;5.342;2023-09-18T01:37:06;100267.00;;;24.70
19282;BMP180;9774;52.034;5.342;2023-09-18T01:39:36;100272.00;;;24.70
19282;BMP180;9774;52.034;5.342;2023-09-18T01:42:06;100273.00;;;24.70
19282;BMP180;9774;52.034;5.342;2023-09-18T01:44:36;100276.00;;;24.80
19282;BMP180;9774;52.034;5.342;2023-09-18T01:47:06;100280.00;;;24.80
19282;BMP180;9774;52.034;5.342;2023-09-18T01:49:36;100273.00;;;24.80
19282;BMP180;9774;52.034;5.342;2023-09-18T01:52:05;100279.00;;;24.80
19282;BMP180;9774;52.034;5.342;2023-09-18T01:54:33;100276.00;;;24.80
19282;BMP180;9774;52.034;5.342;2023-09-18T01:57:02;100274.00;;;24.80
19282;BMP180;9774;52.034;5.342;2023-09-18T01:59:30;100276.00;;;24.80
19282;BMP180;9774;52.034;5.342;2023-09-18T02:01:57;100273.00;;;24.80
19282;BMP180;9774;52.034;5.342;2023-09-18T02:04:24;100274.00;;;24.90
19282;BMP180;9774;52.034;5.342;2023-09-18T02:06:53;100279.00;;;24.90
19282;BMP180;9774;52.034;5.342;2023-09-18T02:09:20;100280.00;;;24.90
19282;BMP180;9774;52.034;5.342;2023-09-18T02:11:47;100285.00;;;24.90
19282;BMP180;9774;52.034;5.342;2023-09-18T02:14:16;100285.00;;;24.90
19282;BMP180;9774;52.034;5.342;2023-09-18T02:16:43;100285.00;;;24.90
19282;BMP180;9774;52.034;5.342;2023-09-18T02:19:12;100283.00;;;24.90
19282;BMP180;9774;52.034;5.342;2023-09-18T02:21:40;100289.00;;;24.90
19282;BMP180;9774;52.034;5.342;2023-09-18T02:24:07;100283.00;;;24.90
19282;BMP180;9774;52.034;5.342;2023-09-18T02:26:35;100274.00;;;25.00
19282;BMP180;9774;52.034;5.342;2023-09-18T02:29:07;100256.00;;;24.90
19282;BMP180;9774;52.034;5.342;2023-09-18T02:31:37;100251.00;;;25.00
19282;BMP180;9774;52.034;5.342;2023-09-18T02:34:04;100250.00;;;25.00
19282;BMP180;9774;52.034;5.342;2023-09-18T02:36:31;100243.00;;;25.00
19282;BMP180;9774;52.034;5.342;2023-09-18T02:38:58;100247.00;;;25.00
19282;BMP180;9774;52.034;5.342;2023-09-18T02:41:26;100236.00;;;25.00
19282;BMP180;9774;52.034;5.342;2023-09-18T02:43:53;100238.00;;;25.00
19282;BMP180;9774;52.034;5.342;2023-09-18T02:46:20;100243.00;;;25.00
19282;BMP180;9774;52.034;5.342;2023-09-18T02:48:48;100234.00;;;25.00
19282;BMP180;9774;52.034;5.342;2023-09-18T02:51:15;100226.00;;;25.00
19282;BMP180;9774;52.034;5.342;2023-09-18T02:53:42;100219.00;;;25.00
19282;BMP180;9774;52.034;5.342;2023-09-18T02:56:09;100208.00;;;25.00
19282;BMP180;9774;52.034;5.342;2023-09-18T02:58:36;100190.00;;;25.00
19282;BMP180;9774;52.034;5.342;2023-09-18T03:01:03;100187.00;;;25.00
19282;BMP180;9774;52.034;5.342;2023-09-18T03:03:31;100169.00;;;25.00
19282;BMP180;9774;52.034;5.342;2023-09-18T03:06:04;100162.00;;;24.90
19282;BMP180;9774;52.034;5.342;2023-09-18T03:08:32;100158.00;;;25.00
19282;BMP180;9774;52.034;5.342;2023-09-18T03:10:59;100153.00;;;25.00
19282;BMP180;9774;52.034;5.342;2023-09-18T03:13:28;100148.00;;;25.00
19282;BMP180;9774;52.034;5.342;2023-09-18T03:15:55;100151.00;;;25.00
19282;BMP180;9774;52.034;5.342;2023-09-18T03:18:22;100152.00;;;25.00
19282;BMP180;9774;52.034;5.342;2023-09-18T03:20:49;100149.00;;;25.00
19282;BMP180;9774;52.034;5.342;2023-09-18T03:23:17;100141.00;;;25.00
19282;BMP180;9774;52.034;5.342;2023-09-18T03:25:44;100140.00;;;25.00
19282;BMP180;9774;52.034;5.342;2023-09-18T03:28:11;100141.00;;;25.00
19282;BMP180;9774;52.034;5.342;2023-09-18T03:30:38;100140.00;;;25.00
19282;BMP180;9774;52.034;5.342;2023-09-18T03:33:04;100136.00;;;25.00
19282;BMP180;9774;52.034;5.342;2023-09-18T03:35:32;100141.00;;;25.00
19282;BMP180;9774;52.034;5.342;2023-09-18T03:37:59;100157.00;;;24.90
19282;BMP180;9774;52.034;5.342;2023-09-18T03:40:28;100160.00;;;24.90
19282;BMP180;9774;52.034;5.342;2023-09-18T03:42:55;100174.00;;;24.90
19282;BMP180;9774;52.034;5.342;2023-09-18T03:45:22;100177.00;;;24.90
19282;BMP180;9774;52.034;5.342;2023-09-18T03:47:49;100177.00;;;24.90
19282;BMP180;9774;52.034;5.342;2023-09-18T03:50:17;100171.00;;;24.90
19282;BMP180;9774;52.034;5.342;2023-09-18T03:52:44;100166.00;;;24.90
19282;BMP180;9774;52.034;5.342;2023-09-18T03:55:11;100152.00;;;24.90
19282;BMP180;9774;52.034;5.342;2023-09-18T03:57:42;100147.00;;;24.90
19282;BMP180;9774;52.034;5.342;2023-09-18T04:00:09;100148.00;;;24.90
19282;BMP180;9774;52.034;5.342;2023-09-18T04:02:36;100147.00;;;24.90
19282;BMP180;9774;52.034;5.342;2023-09-18T04:05:04;100147.00;;;24.90
19282;BMP180;9774;52.034;5.342;2023-09-18T04:07:32;100132.00;;;24.90
19282;BMP180;9774;52.034;5.342;2023-09-18T04:09:59;100129.00;;;24.90
19282;BMP180;9774;52.034;5.342;2023-09-18T04:12:26;100123.00;;;24.90
19282;BMP180;9774;52.034;5.342;2023-09-18T04:14:54;100110.00;;;24.90
19282;BMP180;9774;52.034;5.342;2023-09-18T04:17:21;100107.00;;;24.90
19282;BMP180;9774;52.034;5.342;2023-09-18T04:19:48;100102.00;;;24.90
19282;BMP180;9774;52.034;5.342;2023-09-18T04:22:15;100097.00;;;24.90
19282;BMP180;9774;52.034;5.342;2023-09-18T04:24:42;100087.00;;;24.90
19282;BMP180;9774;52.034;5.342;2023-09-18T04:27:09;100083.00;;;24.90
19282;BMP180;9774;52.034;5.342;2023-09-18T04:29:36;100082.00;;;24.90
19282;BMP180;9774;52.034;5.342;2023-09-18T04:32:05;100076.00;;;24.90
19282;BMP180;9774;52.034;5.342;2023-09-18T04:34:32;100065.00;;;24.90
19282;BMP180;9774;52.034;5.342;2023-09-18T04:37:00;100064.00;;;24.90
19282;BMP180;9774;52.034;5.342;2023-09-18T04:39:29;100067.00;;;24.90
19282;BMP180;9774;52.034;5.342;2023-09-18T04:42:01;100060.00;;;24.90
19282;BMP180;9774;52.034;5.342;2023-09-18T04:44:30;100078.00;;;24.90
19282;BMP180;9774;52.034;5.342;2023-09-18T04:46:57;100110.00;;;24.90
19282;BMP180;9774;52.034;5.342;2023-09-18T04:49:26;100109.00;;;24.80
19282;BMP180;9774;52.034;5.342;2023-09-18T04:51:55;100074.00;;;24.80
19282;BMP180;9774;52.034;5.342;2023-09-18T04:54:22;100090.00;;;24.70
19282;BMP180;9774;52.034;5.342;2023-09-18T04:56:49;100126.00;;;24.70
19282;BMP180;9774;52.034;5.342;2023-09-18T04:59:16;100128.00;;;24.60
19282;BMP180;9774;52.034;5.342;2023-09-18T05:01:43;100107.00;;;24.60
19282;BMP180;9774;52.034;5.342;2023-09-18T05:04:10;100107.00;;;24.60
19282;BMP180;9774;52.034;5.342;2023-09-18T05:06:39;100099.00;;;24.50
19282;BMP180;9774;52.034;5.342;2023-09-18T05:09:07;100090.00;;;24.50
19282;BMP180;9774;52.034;5.342;2023-09-18T05:11:35;100083.00;;;24.60
19282;BMP180;9774;52.034;5.342;2023-09-18T05:14:02;100080.00;;;24.60
19282;BMP180;9774;52.034;5.342;2023-09-18T05:16:29;100077.00;;;24.60
19282;BMP180;9774;52.034;5.342;2023-09-18T05:18:56;100076.00;;;24.60
19282;BMP180;9774;52.034;5.342;2023-09-18T05:21:24;100079.00;;;24.70
19282;BMP180;9774;52.034;5.342;2023-09-18T05:23:54;100082.00;;;24.70
19282;BMP180;9774;52.034;5.342;2023-09-18T05:26:21;100075.00;;;24.70
19282;BMP180;9774;52.034;5.342;2023-09-18T05:28:50;100080.00;;;24.70
19282;BMP180;9774;52.034;5.342;2023-09-18T05:31:28;100082.00;;;24.70
19282;BMP180;9774;52.034;5.342;2023-09-18T05:33:56;100089.00;;;24.80
19282;BMP180;9774;52.034;5.342;2023-09-18T05:36:23;100095.00;;;24.80
19282;BMP180;9774;52.034;5.342;2023-09-18T05:38:50;100094.00;;;24.80
19282;BMP180;9774;52.034;5.342;2023-09-18T05:41:18;100103.00;;;24.80
19282;BMP180;9774;52.034;5.342;2023-09-18T05:43:45;100100.00;;;24.80
19282;BMP180;9774;52.034;5.342;2023-09-18T05:46:12;100105.00;;;24.80
19282;BMP180;9774;52.034;5.342;2023-09-18T05:48:39;100107.00;;;24.80
19282;BMP180;9774;52.034;5.342;2023-09-18T05:51:06;100103.00;;;24.80
19282;BMP180;9774;52.034;5.342;2023-09-18T05:53:33;100101.00;;;24.80
19282;BMP180;9774;52.034;5.342;2023-09-18T05:56:00;100095.00;;;24.90
19282;BMP180;9774;52.034;5.342;2023-09-18T05:58:31;100094.00;;;24.80
19282;BMP180;9774;52.034;5.342;2023-09-18T06:00:58;100100.00;;;24.90
19282;BMP180;9774;52.034;5.342;2023-09-18T06:03:27;100104.00;;;24.90
19282;BMP180;9774;52.034;5.342;2023-09-18T06:05:56;100101.00;;;24.90
19282;BMP180;9774;52.034;5.342;2023-09-18T06:08:23;100092.00;;;24.90
19282;BMP180;9774;52.034;5.342;2023-09-18T06:10:51;100103.00;;;24.90
19282;BMP180;9774;52.034;5.342;2023-09-18T06:13:19;100114.00;;;24.90
19282;BMP180;9774;52.034;5.342;2023-09-18T06:15:48;100111.00;;;24.90
19282;BMP180;9774;52.034;5.342;2023-09-18T06:18:16;100107.00;;;24.90
19282;BMP180;9774;52.034;5.342;2023-09-18T06:20:43;100119.00;;;24.90
19282;BMP180;9774;52.034;5.342;2023-09-18T06:23:10;100122.00;;;24.90
19282;BMP180;9774;52.034;5.342;2023-09-18T06:25:38;100113.00;;;24.90
19282;BMP180;9774;52.034;5.342;2023-09-18T06:28:06;100118.00;;;24.90
19282;BMP180;9774;52.034;5.342;2023-09-18T06:30:33;100115.00;;;24.90
19282;BMP180;9774;52.034;5.342;2023-09-18T06:33:03;100104.00;;;24.90
19282;BMP180;9774;52.034;5.342;2023-09-18T06:35:30;100105.00;;;25.00
19282;BMP180;9774;52.034;5.342;2023-09-18T06:37:57;100118.00;;;25.00
19282;BMP180;9774;52.034;5.342;2023-09-18T06:40:25;100109.00;;;25.00
19282;BMP180;9774;52.034;5.342;2023-09-18T06:42:58;100106.00;;;24.90
19282;BMP180;9774;52.034;5.342;2023-09-18T06:45:26;100123.00;;;25.00
19282;BMP180;9774;52.034;5.342;2023-09-18T06:47:53;100116.00;;;25.00
19282;BMP180;9774;52.034;5.342;2023-09-18T06:50:22;100113.00;;;25.00
19282;BMP180;9774;52.034;5.342;2023-09-18T06:52:49;100113.00;;;25.00
19282;BMP180;9774;52.034;5.342;2023-09-18T06:55:16;100120.00;;;25.00
19282;BMP180;9774;52.034;5.342;2023-09-18T06:57:43;100120.00;;;25.00
19282;BMP180;9774;52.034;5.342;2023-09-18T07:00:12;100116.00;;;25.10
19282;BMP180;9774;52.034;5.342;2023-09-18T07:02:40;100120.00;;;25.10
19282;BMP180;9774;52.034;5.342;2023-09-18T07:05:07;100124.00;;;25.10
19282;BMP180;9774;52.034;5.342;2023-09-18T07:07:36;100124.00;;;25.10
19282;BMP180;9774;52.034;5.342;2023-09-18T07:10:03;100124.00;;;25.10
19282;BMP180;9774;52.034;5.342;2023-09-18T07:12:31;100129.00;;;25.20
19282;BMP180;9774;52.034;5.342;2023-09-18T07:15:00;100137.00;;;25.10
19282;BMP180;9774;52.034;5.342;2023-09-18T07:17:28;100139.00;;;25.20
19282;BMP180;9774;52.034;5.342;2023-09-18T07:19:56;100136.00;;;25.20
19282;BMP180;9774;52.034;5.342;2023-09-18T07:22:23;100129.00;;;25.20
19282;BMP180;9774;52.034;5.342;2023-09-18T07:24:51;100123.00;;;25.20
19282;BMP180;9774;52.034;5.342;2023-09-18T07:27:18;100122.00;;;25.20
19282;BMP180;9774;52.034;5.342;2023-09-18T07:29:45;100131.00;;;25.20
19282;BMP180;9774;52.034;5.342;2023-09-18T07:32:12;100124.00;;;25.30
19282;BMP180;9774;52.034;5.342;2023-09-18T07:34:39;100117.00;;;25.30
19282;BMP180;9774;52.034;5.342;2023-09-18T07:37:06;100108.00;;;25.30
19282;BMP180;9774;52.034;5.342;2023-09-18T07:39:33;100126.00;;;25.30
19282;BMP180;9774;52.034;5.342;2023-09-18T07:42:02;100124.00;;;25.30
19282;BMP180;9774;52.034;5.342;2023-09-18T07:44:29;100120.00;;;25.30
19282;BMP180;9774;52.034;5.342;2023-09-18T07:46:56;100122.00;;;25.30
19282;BMP180;9774;52.034;5.342;2023-09-18T07:49:23;100131.00;;;25.30
19282;BMP180;9774;52.034;5.342;2023-09-18T07:51:50;100133.00;;;25.30
19282;BMP180;9774;52.034;5.342;2023-09-18T07:54:17;100130.00;;;25.30
19282;BMP180;9774;52.034;5.342;2023-09-18T07:56:44;100128.00;;;25.30
19282;BMP180;9774;52.034;5.342;2023-09-18T07:59:12;100131.00;;;25.20
19282;BMP180;9774;52.034;5.342;2023-09-18T08:01:40;100143.00;;;25.30
19282;BMP180;9774;52.034;5.342;2023-09-18T08:04:07;100148.00;;;25.30
19282;BMP180;9774;52.034;5.342;2023-09-18T08:06:34;100145.00;;;25.30
19282;BMP180;9774;52.034;5.342;2023-09-18T08:09:01;100147.00;;;25.30
19282;BMP180;9774;52.034;5.342;2023-09-18T08:11:29;100139.00;;;25.30
19282;BMP180;9774;52.034;5.342;2023-09-18T08:13:56;100143.00;;;25.30
19282;BMP180;9774;52.034;5.342;2023-09-18T08:16:25;100141.00;;;25.30
19282;BMP180;9774;52.034;5.342;2023-09-18T08:18:52;100140.00;;;25.30
19282;BMP180;9774;52.034;5.342;2023-09-18T08:21:19;100146.00;;;25.30
19282;BMP180;9774;52.034;5.342;2023-09-18T08:23:46;100147.00;;;25.30
19282;BMP180;9774;52.034;5.342;2023-09-18T08:26:13;100167.00;;;25.30
19282;BMP180;9774;52.034;5.342;2023-09-18T08:28:40;100166.00;;;25.30
19282;BMP180;9774;52.034;5.342;2023-09-18T08:31:09;100159.00;;;25.30
19282;BMP180;9774;52.034;5.342;2023-09-18T08:33:37;100158.00;;;25.30
19282;BMP180;9774;52.034;5.342;2023-09-18T08:36:05;100165.00;;;25.30
19282;BMP180;9774;52.034;5.342;2023-09-18T08:38:32;100159.00;;;25.30
19282;BMP180;9774;52.034;5.342;2023-09-18T08:40:59;100161.00;;;25.40
19282;BMP180;9774;52.034;5.342;2023-09-18T08:43:26;100161.00;;;25.40
19282;BMP180;9774;52.034;5.342;2023-09-18T08:45:56;100158.00;;;25.30
19282;BMP180;9774;52.034;5.342;2023-09-18T08:48:28;100167.00;;;25.40
19282;BMP180;9774;52.034;5.342;2023-09-18T08:51:02;100160.00;;;25.40
19282;BMP180;9774;52.034;5.342;2023-09-18T08:53:30;100167.00;;;25.50
19282;BMP180;9774;52.034;5.342;2023-09-18T08:55:59;100169.00;;;25.50
19282;BMP180;9774;52.034;5.342;2023-09-18T08:58:29;100177.00;;;25.50
19282;BMP180;9774;52.034;5.342;2023-09-18T09:00:58;100179.00;;;25.60
19282;BMP180;9774;52.034;5.342;2023-09-18T09:03:27;100183.00;;;25.60
19282;BMP180;9774;52.034;5.342;2023-09-18T09:05:53;100191.00;;;25.60
19282;BMP180;9774;52.034;5.342;2023-09-18T09:08:22;100197.00;;;25.70
19282;BMP180;9774;52.034;5.342;2023-09-18T09:10:49;100199.00;;;25.70
19282;BMP180;9774;52.034;5.342;2023-09-18T09:13:16;100196.00;;;25.70
19282;BMP180;9774;52.034;5.342;2023-09-18T09:15:45;100199.00;;;25.80
19282;BMP180;9774;52.034;5.342;2023-09-18T09:18:14;100194.00;;;25.90
19282;BMP180;9774;52.034;5.342;2023-09-18T09:20:52;100193.00;;;25.90
19282;BMP180;9774;52.034;5.342;2023-09-18T09:23:19;100204.00;;;26.00
19282;BMP180;9774;52.034;5.342;2023-09-18T09:25:47;100195.00;;;26.10
19282;BMP180;9774;52.034;5.342;2023-09-18T09:28:14;100195.00;;;26.20
19282;BMP180;9774;52.034;5.342;2023-09-18T09:30:42;100196.00;;;26.30
19282;BMP180;9774;52.034;5.342;2023-09-18T09:33:12;100203.00;;;26.40
19282;BMP180;9774;52.034;5.342;2023-09-18T09:35:41;100209.00;;;26.50
19282;BMP180;9774;52.034;5.342;2023-09-18T09:38:10;100212.00;;;26.60
19282;BMP180;9774;52.034;5.342;2023-09-18T09:40:41;100202.00;;;26.60
19282;BMP180;9774;52.034;5.342;2023-09-18T09:43:12;100217.00;;;26.60
19282;BMP180;9774;52.034;5.342;2023-09-18T09:45:41;100219.00;;;26.60
19282;BMP180;9774;52.034;5.342;2023-09-18T09:48:08;100233.00;;;26.60
19282;BMP180;9774;52.034;5.342;2023-09-18T09:50:46;100228.00;;;26.50
19282;BMP180;9774;52.034;5.342;2023-09-18T09:53:14;100229.00;;;26.60
19282;BMP180;9774;52.034;5.342;2023-09-18T09:55:41;100242.00;;;26.50
19282;BMP180;9774;52.034;5.342;2023-09-18T09:58:11;100234.00;;;26.40
19282;BMP180;9774;52.034;5.342;2023-09-18T10:00:43;100247.00;;;26.40
19282;BMP180;9774;52.034;5.342;2023-09-18T10:03:16;100241.00;;;26.40
19282;BMP180;9774;52.034;5.342;2023-09-18T10:05:46;100251.00;;;26.40
19282;BMP180;9774;52.034;5.342;2023-09-18T10:08:17;100245.00;;;26.30
19282;BMP180;9774;52.034;5.342;2023-09-18T10:10:47;100247.00;;;26.30
19282;BMP180;9774;52.034;5.342;2023-09-18T10:13:20;100244.00;;;26.30
19282;BMP180;9774;52.034;5.342;2023-09-18T10:15:50;100240.00;;;26.30
19282;BMP180;9774;52.034;5.342;2023-09-18T10:18:26;100246.00;;;26.20
19282;BMP180;9774;52.034;5.342;2023-09-18T10:21:05;100246.00;;;26.20
19282;BMP180;9774;52.034;5.342;2023-09-18T10:23:58;100251.00;;;26.10
19282;BMP180;9774;52.034;5.342;2023-09-18T10:26:27;100235.00;;;26.20
19282;BMP180;9774;52.034;5.342;2023-09-18T10:28:57;100244.00;;;26.20
19282;BMP180;9774;52.034;5.342;2023-09-18T10:31:26;100246.00;;;26.10
19282;BMP180;9774;52.034;5.342;2023-09-18T10:33:56;100251.00;;;26.10
19282;BMP180;9774;52.034;5.342;2023-09-18T10:36:25;100252.00;;;26.10
19282;BMP180;9774;52.034;5.342;2023-09-18T10:38:55;100262.00;;;26.10
19282;BMP180;9774;52.034;5.342;2023-09-18T10:41:25;100257.00;;;26.10
19282;BMP180;9774;52.034;5.342;2023-09-18T10:43:54;100258.00;;;26.10
19282;BMP180;9774;52.034;5.342;2023-09-18T10:46:25;100257.00;;;26.10
19282;BMP180;9774;52.034;5.342;2023-09-18T10:48:54;100262.00;;;26.10
19282;BMP180;9774;52.034;5.342;2023-09-18T10:51:23;100260.00;;;26.10
19282;BMP180;9774;52.034;5.342;2023-09-18T10:53:51;100260.00;;;26.10
19282;BMP180;9774;52.034;5.342;2023-09-18T10:56:20;100258.00;;;26.10
19282;BMP180;9774;52.034;5.342;2023-09-18T10:58:55;100257.00;;;26.00
19282;BMP180;9774;52.034;5.342;2023-09-18T11:01:25;100248.00;;;26.10
19282;BMP180;9774;52.034;5.342;2023-09-18T11:03:58;100241.00;;;26.10
19282;BMP180;9774;52.034;5.342;2023-09-18T11:06:27;100247.00;;;26.20
19282;BMP180;9774;52.034;5.342;2023-09-18T11:09:00;100243.00;;;26.20
19282;BMP180;9774;52.034;5.342;2023-09-18T11:11:31;100247.00;;;26.30
19282;BMP180;9774;52.034;5.342;2023-09-18T11:14:01;100245.00;;;26.40
19282;BMP180;9774;52.034;5.342;2023-09-18T11:16:37;100243.00;;;26.30
19282;BMP180;9774;52.034;5.342;2023-09-18T11:19:10;100240.00;;;26.40
19282;BMP180;9774;52.034;5.342;2023-09-18T11:21:38;100235.00;;;26.50
19282;BMP180;9774;52.034;5.342;2023-09-18T11:24:07;100240.00;;;26.60
19282;BMP180;9774;52.034;5.342;2023-09-18T11:26:40;100232.00;;;26.60
19282;BMP180;9774;52.034;5.342;2023-09-18T11:29:09;100237.00;;;26.70
19282;BMP180;9774;52.034;5.342;2023-09-18T11:31:45;100233.00;;;26.70
19282;BMP180;9774;52.034;5.342;2023-09-18T11:34:21;100237.00;;;26.70
19282;BMP180;9774;52.034;5.342;2023-09-18T11:36:49;100228.00;;;26.90
19282;BMP180;9774;52.034;5.342;2023-09-18T11:39:35;100228.00;;;26.80
19282;BMP180;9774;52.034;5.342;2023-09-18T11:42:10;100232.00;;;26.90
19282;BMP180;9774;52.034;5.342;2023-09-18T11:44:38;100248.00;;;27.00
19282;BMP180;9774;52.034;5.342;2023-09-18T11:47:15;100236.00;;;27.00
19282;BMP180;9774;52.034;5.342;2023-09-18T11:49:51;100232.00;;;27.00
19282;BMP180;9774;52.034;5.342;2023-09-18T11:52:21;100238.00;;;26.90
19282;BMP180;9774;52.034;5.342;2023-09-18T11:54:49;100229.00;;;26.90
19282;BMP180;9774;52.034;5.342;2023-09-18T11:57:17;100231.00;;;26.90
19282;BMP180;9774;52.034;5.342;2023-09-18T11:59:45;100229.00;;;26.90
19282;BMP180;9774;52.034;5.342;2023-09-18T12:02:17;100239.00;;;26.90
19282;BMP180;9774;52.034;5.342;2023-09-18T12:04:53;100233.00;;;27.00
19282;BMP180;9774;52.034;5.342;2023-09-18T12:07:20;100242.00;;;26.90
19282;BMP180;9774;52.034;5.342;2023-09-18T12:09:48;100241.00;;;26.90
19282;BMP180;9774;52.034;5.342;2023-09-18T12:12:16;100238.00;;;26.80
19282;BMP180;9774;52.034;5.342;2023-09-18T12:14:44;100240.00;;;26.80
19282;BMP180;9774;52.034;5.342;2023-09-18T12:17:15;100238.00;;;26.70
19282;BMP180;9774;52.034;5.342;2023-09-18T12:19:51;100239.00;;;26.70
19282;BMP180;9774;52.034;5.342;2023-09-18T12:22:24;100233.00;;;26.70
19282;BMP180;9774;52.034;5.342;2023-09-18T12:24:51;100238.00;;;26.70
19282;BMP180;9774;52.034;5.342;2023-09-18T12:27:19;100238.00;;;26.70
19282;BMP180;9774;52.034;5.342;2023-09-18T12:29:46;100237.00;;;26.60
19282;BMP180;9774;52.034;5.342;2023-09-18T12:32:15;100234.00;;;26.70
19282;BMP180;9774;52.034;5.342;2023-09-18T12:34:43;100248.00;;;26.80
19282;BMP180;9774;52.034;5.342;2023-09-18T12:37:12;100234.00;;;26.80
19282;BMP180;9774;52.034;5.342;2023-09-18T12:39:39;100231.00;;;26.90
19282;BMP180;9774;52.034;5.342;2023-09-18T12:42:07;100229.00;;;27.00
19282;BMP180;9774;52.034;5.342;2023-09-18T12:44:34;100228.00;;;27.10
19282;BMP180;9774;52.034;5.342;2023-09-18T12:47:02;100222.00;;;27.10
19282;BMP180;9774;52.034;5.342;2023-09-18T12:49:31;100231.00;;;27.20
19282;BMP180;9774;52.034;5.342;2023-09-18T12:52:01;100224.00;;;27.30
19282;BMP180;9774;52.034;5.342;2023-09-18T12:54:40;100207.00;;;27.30
19282;BMP180;9774;52.034;5.342;2023-09-18T12:57:09;100202.00;;;27.40
19282;BMP180;9774;52.034;5.342;2023-09-18T12:59:37;100190.00;;;27.50
19282;BMP180;9774;52.034;5.342;2023-09-18T13:02:06;100189.00;;;27.70
19282;BMP180;9774;52.034;5.342;2023-09-18T13:04:37;100194.00;;;27.80
19282;BMP180;9774;52.034;5.342;2023-09-18T13:07:10;100194.00;;;27.90
19282;BMP180;9774;52.034;5.342;2023-09-18T13:09:37;100184.00;;;28.10
19282;BMP180;9774;52.034;5.342;2023-09-18T13:12:06;100168.00;;;28.20
19282;BMP180;9774;52.034;5.342;2023-09-18T13:14:57;100174.00;;;28.20
19282;BMP180;9774;52.034;5.342;2023-09-18T13:17:25;100164.00;;;28.40
19282;BMP180;9774;52.034;5.342;2023-09-18T13:19:53;100164.00;;;28.50
19282;BMP180;9774;52.034;5.342;2023-09-18T13:22:24;100158.00;;;28.70
19282;BMP180;9774;52.034;5.342;2023-09-18T13:24:56;100154.00;;;28.80
19282;BMP180;9774;52.034;5.342;2023-09-18T13:27:24;100151.00;;;29.00
19282;BMP180;9774;52.034;5.342;2023-09-18T13:29:52;100155.00;;;29.30
19282;BMP180;9774;52.034;5.342;2023-09-18T13:32:20;100154.00;;;29.60
19282;BMP180;9774;52.034;5.342;2023-09-18T13:34:47;100151.00;;;29.70
19282;BMP180;9774;52.034;5.342;2023-09-18T13:37:15;100149.00;;;29.80
19282;BMP180;9774;52.034;5.342;2023-09-18T13:39:45;100142.00;;;30.00
19282;BMP180;9774;52.034;5.342;2023-09-18T13:42:12;100132.00;;;30.20
19282;BMP180;9774;52.034;5.342;2023-09-18T13:44:39;100129.00;;;30.60
19282;BMP180;9774;52.034;5.342;2023-09-18T13:47:06;100137.00;;;30.80
19282;BMP180;9774;52.034;5.342;2023-09-18T13:49:33;100131.00;;;31.20
19282;BMP180;9774;52.034;5.342;2023-09-18T13:52:00;100128.00;;;31.60
19282;BMP180;9774;52.034;5.342;2023-09-18T13:54:30;100128.00;;;32.20
19282;BMP180;9774;52.034;5.342;2023-09-18T13:56:57;100129.00;;;32.80
19282;BMP180;9774;52.034;5.342;2023-09-18T13:59:25;100140.00;;;33.60
19282;BMP180;9774;52.034;5.342;2023-09-18T14:01:52;100141.00;;;34.30
19282;BMP180;9774;52.034;5.342;2023-09-18T14:04:20;100131.00;;;34.80
19282;BMP180;9774;52.034;5.342;2023-09-18T14:06:47;100130.00;;;35.20
19282;BMP180;9774;52.034;5.342;2023-09-18T14:09:14;100137.00;;;35.30
19282;BMP180;9774;52.034;5.342;2023-09-18T14:11:44;100124.00;;;35.20
19282;BMP180;9774;52.034;5.342;2023-09-18T14:14:11;100122.00;;;35.20
19282;BMP180;9774;52.034;5.342;2023-09-18T14:16:38;100117.00;;;35.00
19282;BMP180;9774;52.034;5.342;2023-09-18T14:19:05;100108.00;;;34.70